Flight Track Log - Related Links

Times and Time Zones

All times are in EDT time to prevent confusion due to time zone crossing. See the SWA1586 flight status page for this flight to view local times or setup timezone preferences in your user account.

Time Position Orientation Groundspeed Altitude Reporting Facility
EDT Latitude Longitude Course Direction KTS MPH feet Rate Location/Type
Sat 09:47:19 AM 32.7436 -96.6972 103° East 281 323 6,900  Level Fort Worth Center
Sat 09:48:18 AM 32.7494 -96.6058 86° East 296 341 10,000 3,000 Climbing Fort Worth Center
Sat 09:49:19 AM 32.7528 -96.4994 88° East 315 362 12,900 3,050 Climbing Fort Worth Center
Sat 09:50:18 AM 32.7583 -96.3883 87° East 331 381 16,100 2,874 Climbing Fort Worth Center
Sat 09:51:00 AM 32.7536 -96.3363 102° East  Level FlightAware Approximate
Sat 09:51:18 AM 32.7508 -96.2697 94° East 338 389 18,600  Level Fort Worth Center
Sat 09:52:00 AM 32.7386 -96.2098 103° East  Level FlightAware Approximate
Sat 09:52:19 AM 32.7331 -96.1564 101° East 372 428 20,900  Level Fort Worth Center
Sat 09:53:18 AM 32.7108 -96.0183 101° East 381 438 23,400 2,168 Climbing Fort Worth Center
Sat 09:54:18 AM 32.6928 -95.8978 100° East 395 455 25,200 1,736 Climbing Fort Worth Center
Sat 09:55:19 AM 32.6703 -95.7625 101° East 406 467 26,900 1,636 Climbing Fort Worth Center
Sat 09:56:19 AM 32.6578 -95.6219 96° East 419 482 28,500 1,513 Climbing Fort Worth Center
Sat 09:57:18 AM 32.6683 -95.4786 85° East 424 488 29,900 1,462 Climbing Fort Worth Center
Sat 09:58:18 AM 32.6783 -95.3303 85° East 435 501 31,400 1,700 Climbing Fort Worth Center
Sat 09:59:18 AM 32.6547 -95.1681 100° East 440 506 33,300 1,750 Climbing Fort Worth Center
Sat 10:00:18 AM 32.6000 -95.0339 116° Southeast 445 512 34,900 1,400 Climbing Fort Worth Center
Sat 10:01:18 AM 32.5308 -94.9075 123° Southeast 445 512 36,100 1,050 Climbing Fort Worth Center
Sat 10:02:18 AM 32.4614 -94.7764 122° Southeast 456 525 37,000 450 Climbing Fort Worth Center
Sat 10:03:18 AM 32.3917 -94.6431 122° Southeast 469 540 37,000  Level Fort Worth Center
Sat 10:04:18 AM 32.3178 -94.5128 124° Southeast 475 547 37,000  Level Fort Worth Center
Sat 10:05:18 AM 32.2478 -94.3797 122° Southeast 475 547 37,000  Level Fort Worth Center
Sat 10:06:18 AM 32.1911 -94.2786 123° Southeast 475 547 37,000  Level Fort Worth Center
Sat 10:07:19 AM 32.1186 -94.1414 122° Southeast 469 540 37,000  Level Fort Worth Center
Sat 10:08:18 AM 32.0486 -94.0139 123° Southeast 469 540 37,000  Level Fort Worth Center
Sat 10:09:47 AM 31.9361 -93.8161 124° Southeast 474 545 37,000  Level Houston Center
Sat 10:10:49 AM 31.8642 -93.6867 123° Southeast 473 544 37,000  Level Houston Center
Sat 10:11:50 AM 31.7928 -93.5586 123° Southeast 468 539 37,000  Level Houston Center
Sat 10:12:52 AM 31.7219 -93.4319 123° Southeast 466 536 37,000  Level Houston Center
Sat 10:13:54 AM 31.6503 -93.3047 123° Southeast 467 537 37,000  Level Houston Center
Sat 10:14:55 AM 31.5692 -93.1608 123° Southeast 467 537 37,000  Level Houston Center
Sat 10:15:57 AM 31.4967 -93.0342 124° Southeast 468 539 37,000  Level Houston Center
Sat 10:16:58 AM 31.4250 -92.9072 123° Southeast 467 537 37,000  Level Houston Center
Sat 10:18:00 AM 31.3517 -92.7806 124° Southeast 469 540 37,000 -49 Level Houston Center
Sat 10:19:01 AM 31.2803 -92.6542 123° Southeast 467 537 36,900 -49 Descending Houston Center
Sat 10:20:03 AM 31.2089 -92.5306 124° Southeast 462 532 36,900 49 Level Houston Center
Sat 10:21:04 AM 31.1367 -92.4078 124° Southeast 458 527 37,000 -439 Climbing Houston Center
Sat 10:22:06 AM 31.0542 -92.2628 124° Southeast 447 514 36,000 -927 Descending Houston Center
Sat 10:23:07 AM 30.9853 -92.1442 124° Southeast 458 527 35,100 -878 Descending Houston Center
Sat 10:24:09 AM 30.9122 -92.0194 124° Southeast 466 536 34,200 -927 Descending Houston Center
Sat 10:25:10 AM 30.8403 -91.8950 124° Southeast 465 535 33,200 -1,902 Descending Houston Center
Sat 10:26:12 AM 30.7669 -91.7697 124° Southeast 469 540 30,300 -2,927 Descending Houston Center
Sat 10:27:13 AM 30.6814 -91.6231 124° Southeast 459 528 27,200 -2,732 Descending Houston Center
Sat 10:28:15 AM 30.6139 -91.5081 124° Southeast 438 504 24,700 -2,244 Descending Houston Center
Sat 10:29:16 AM 30.5544 -91.4086 125° Southeast 419 482 22,600 -2,146 Descending Houston Center
Sat 10:30:18 AM 30.4894 -91.3022 125° Southeast 407 468 20,300 -2,177 Descending Houston Center
Sat 10:31:20 AM 30.4086 -91.2217 139° Southeast 388 447 18,100 -2,439 Descending Houston Center
Sat 10:32:21 AM 30.3131 -91.1333 141° Southeast 369 425 15,300 -2,373 Descending Houston Center
Sat 10:33:34 AM 30.2192 -91.0453 141° Southeast 353 406 12,800 -2,098 Descending Houston Center
Sat 10:34:24 AM 30.1619 -90.9936 142° Southeast 344 396 11,000 -1,341 Descending Houston Center
Sat 10:34:59 AM 30.1164 -90.9475 139° Southeast 341 392 10,900 -695 Descending Houston Center
Sat 10:35:59 AM 30.0994 -90.8519 102° East 303 349 9,900 -1,148 Descending Houston Center
Sat 10:36:54 AM 30.0867 -90.7661 100° East 286 329 8,700 -1,267 Descending Houston Center
Sat 10:37:29 AM 30.0814 -90.7258 99° East 290 334 8,000 -1,701 Descending Houston Center
Sat 10:38:01 AM 30.0736 -90.6656 98° East 272 313 6,800 -1,839 Descending Houston Center
Sat 10:38:31 AM 30.0697 -90.6403 100° East 279 321 6,100 -2,000 Descending Houston Center
Sat 10:39:01 AM 30.0608 -90.5819 100° East 270 311 4,800 -2,164 Descending Houston Center
Sat 10:39:32 AM 30.0583 -90.5383 94° East 272 313 3,900 -1,279 Descending Houston Center
Sat 10:40:02 AM 30.0481 -90.4983 107° East 255 293 3,500 -1,161 Descending Houston Center
Sat 10:40:34 AM 30.0414 -90.4625 102° East 254 292 2,700 -1,021 Descending Houston Center
Sat 10:41:36 AM 30.0261 -90.4025 106° East 221 254 1,900 -758 Descending Houston Center
Sat 10:42:09 AM 30.0175 -90.3772 111° Southeast 144 166 1,500 -702 Descending Houston Center
Sat 10:43:10 AM 30.0078 -90.3342 105° East 124 143 800 -600 Descending Houston Center
Sat 10:43:59 AM 30.0006 -90.3033 105° East 127 146 400 15,467 Descending Houston Center
Sat 10:44:40 AM 29.9986 -90.2828 96° East 146 168 24,000 34,537 Climbing Houston Center
Sat 10:46:00 AM 29.9934 -90.2580 101° East  Level Estimated
Sat 10:53:00 AM 29.9934 -90.2580 101° East  Level Estimated
Sat 10:54:00 AM 29.9934 -90.2580 101° East  Level Estimated

Login

Don't have an account? Register now (free) for customized features, flight alerts, and more!